This is the latest recevied weather packets stored in our database for station/object VE3EP-1. If no packets are shown the sender has not sent any weather packets the latest 10 day(s).
| Time | Temp. | Humidity | Pressure | Rain* | Wind** | Luminosity | Snow |
|---|---|---|---|---|---|---|---|
| 1778014928 | 11.67° C | 79% | 1007.6 hPa | 0 mm | - | - | - |
| 1778013728 | 11.67° C | 78% | 1007.4 hPa | 0 mm | - | - | - |
| 1778013129 | 11.67° C | 77% | 1007.4 hPa | 0 mm | - | - | - |
| 1778011928 | 11.67° C | 80% | 1007 hPa | 0 mm | - | - | - |
| 1778011329 | 11.67° C | 78% | 1006.9 hPa | 0 mm | - | - | - |
| 1778010728 | 11.67° C | 77% | 1007.2 hPa | 0 mm | - | - | - |
| 1778009528 | 12.78° C | 75% | 1006.7 hPa | 0 mm | - | - | - |
| 1778008929 | 12.22° C | 78% | 1006.6 hPa | 0 mm | - | - | - |
| 1778007728 | 12.22° C | 76% | 1006.6 hPa | 0 mm | - | - | - |
| 1778007128 | 13.33° C | 71% | 1006.7 hPa | 0 mm | - | - | - |
| 1778006528 | 12.78° C | 74% | 1006.3 hPa | 0 mm | - | - | - |
| 1778005928 | 15° C | 67% | 1006.2 hPa | 0 mm | - | - | - |
| 1778005328 | 13.89° C | 70% | 1006.2 hPa | 0 mm | - | - | - |
| 1778004729 | 12.78° C | 74% | 1006.1 hPa | 0 mm | - | - | - |
| 1778003528 | 13.89° C | 74% | 1006.2 hPa | 0 mm | - | - | - |
| 1778002328 | 14.44° C | 75% | 1006.2 hPa | 0 mm | - | - | - |
| 1778001728 | 15° C | 74% | 1006.2 hPa | 0 mm | - | - | - |
| 1778001128 | 15.56° C | 72% | 1006.2 hPa | 0 mm | - | - | - |
| 1778000528 | 14.44° C | 71% | 1006 hPa | 0 mm | - | - | - |
| 1777999929 | 13.89° C | 72% | 1006 hPa | 0 mm | - | - | - |
| 1777999328 | 12.78° C | 75% | 1006 hPa | 0 mm | - | - | - |
| 1777998728 | 13.33° C | 75% | 1006.2 hPa | 0 mm | - | - | - |
| 1777997528 | 12.22° C | 77% | 1006.2 hPa | 0 mm | - | - | - |
| 1777996928 | 12.22° C | 76% | 1005.7 hPa | 0 mm | - | - | - |
| 1777995128 | 11.67° C | 75% | 1005 hPa | 0 mm | - | - | - |
* Rain latest hour (hover to see other rain measurements)
** Current wind speed in m/s (hover to see current wind gust speed)